Terminal Aerodrome Forecast
Issued by NWS Binghamton, NY

Home | Current Version | Previous Version | Text Only | Print | Product List | Glossary On
Versions: 1 2 3 4 5 6 7 8 9 10 11 12 13 14 15
521
FTUS41 KBGM 201134
TAFBGM
TAF
KBGM 201134Z 2012/2112 32008KT P6SM SCT025
      TEMPO 2012/2014 BKN025
     FM201400 34010KT P6SM SCT035 SCT250
     FM202300 36005KT P6SM BKN250=

USA.gov is the U.S. government's official web portal to all federal, state and local government web resources and services.